createdAt,value
2024-05-09T00:01:28.434Z,100120.09
2024-05-09T00:03:58.313Z,100143.28
2024-05-09T00:06:28.237Z,100138.13
2024-05-09T00:08:58.011Z,100134.00
2024-05-09T00:11:27.885Z,100130.66
2024-05-09T00:14:00.556Z,100133.38
2024-05-09T00:16:30.345Z,100128.75
2024-05-09T00:19:00.323Z,100128.63
2024-05-09T00:21:30.928Z,100121.66
2024-05-09T00:24:00.714Z,100108.84
2024-05-09T00:26:30.569Z,100112.22
2024-05-09T00:29:03.194Z,100116.44
2024-05-09T00:31:33.049Z,100116.56
2024-05-09T00:34:02.983Z,100111.50
2024-05-09T00:36:32.951Z,100106.69
2024-05-09T00:39:02.731Z,100105.75
2024-05-09T00:41:32.521Z,100099.72
2024-05-09T00:44:05.350Z,100093.75
2024-05-09T00:46:35.380Z,100087.84
2024-05-09T00:49:05.690Z,100094.34
2024-05-09T00:51:35.604Z,100094.53
2024-05-09T00:54:05.661Z,100093.03
2024-05-09T00:56:38.198Z,100075.78
2024-05-09T00:59:10.961Z,100093.22
2024-05-09T01:01:40.972Z,100086.13
2024-05-09T01:04:11.520Z,100081.78
2024-05-09T01:06:41.505Z,100084.38
2024-05-09T01:09:11.379Z,100080.75
2024-05-09T01:11:41.798Z,100082.38
2024-05-09T01:14:14.313Z,100073.66
2024-05-09T01:16:44.777Z,100063.44
2024-05-09T01:19:22.387Z,100063.50
2024-05-09T01:21:52.291Z,100072.91
2024-05-09T01:24:24.724Z,100056.53
2024-05-09T01:26:54.595Z,100039.41
2024-05-09T01:29:24.533Z,100058.34
2024-05-09T01:31:55.110Z,100061.72
2024-05-09T01:34:24.967Z,100055.03
2024-05-09T01:36:54.767Z,100047.41
2024-05-09T01:39:27.458Z,100046.66
2024-05-09T01:41:57.251Z,100046.63
2024-05-09T01:44:27.077Z,100051.00
2024-05-09T01:46:56.940Z,100045.63
2024-05-09T01:49:27.065Z,100044.69
2024-05-09T01:51:56.905Z,100035.31
2024-05-09T01:54:29.395Z,100039.63
2024-05-09T01:56:59.166Z,100029.50
2024-05-09T01:59:29.029Z,100018.31
2024-05-09T02:01:59.010Z,100024.41
2024-05-09T02:04:30.699Z,100021.03
2024-05-09T02:07:00.593Z,100017.72
2024-05-09T02:09:33.004Z,99994.53
2024-05-09T02:12:02.964Z,100011.00
2024-05-09T02:14:32.920Z,100003.69
2024-05-09T02:17:02.766Z,99999.59
2024-05-09T02:19:32.984Z,100002.00
2024-05-09T02:22:02.905Z,99975.41
2024-05-09T02:24:35.372Z,99978.78
2024-05-09T02:27:05.190Z,99995.97
2024-05-09T02:29:35.026Z,99996.25
2024-05-09T02:32:04.951Z,99983.47
2024-05-09T02:34:34.915Z,99987.69
2024-05-09T02:37:04.735Z,99984.28
2024-05-09T02:39:34.777Z,99989.56
2024-05-09T02:42:04.589Z,99967.16
2024-05-09T02:44:31.919Z,99977.63
2024-05-09T02:47:01.754Z,99965.91
2024-05-09T02:49:29.135Z,99962.56
2024-05-09T02:51:59.030Z,99964.19
2024-05-09T02:54:26.317Z,99959.38
2024-05-09T02:56:58.775Z,99962.94
2024-05-09T02:59:26.154Z,99959.75
2024-05-09T03:01:56.141Z,99968.09
2024-05-09T03:04:23.380Z,99959.66
2024-05-09T03:06:53.187Z,99952.97
2024-05-09T03:09:21.673Z,99953.69
2024-05-09T03:11:51.648Z,99947.84
2024-05-09T03:14:21.709Z,99953.16
2024-05-09T03:16:51.614Z,99946.25
2024-05-09T03:19:18.961Z,99944.63
2024-05-09T03:21:48.751Z,99936.91
2024-05-09T03:24:15.833Z,99933.47
2024-05-09T03:26:45.833Z,99925.03
2024-05-09T03:29:13.025Z,99919.09
2024-05-09T03:31:45.585Z,99916.78
2024-05-09T03:34:12.753Z,99909.09
2024-05-09T03:36:44.618Z,99919.50
2024-05-09T03:39:14.749Z,99877.66
2024-05-09T03:41:44.577Z,99909.28
2024-05-09T03:44:11.838Z,99905.75
2024-05-09T03:46:41.890Z,99891.97
2024-05-09T03:49:11.863Z,99903.56
2024-05-09T03:51:41.756Z,99899.59
2024-05-09T03:54:08.853Z,99895.53
2024-05-09T03:56:38.765Z,99904.53
2024-05-09T03:59:05.996Z,99901.34
2024-05-09T04:01:35.923Z,99894.47
2024-05-09T04:04:03.186Z,99890.94
2024-05-09T04:06:35.650Z,99892.59
2024-05-09T04:09:02.768Z,99887.69
2024-05-09T04:11:33.751Z,99882.50
2024-05-09T04:14:01.028Z,99875.91
2024-05-09T04:16:30.902Z,99876.78
2024-05-09T04:18:58.102Z,99875.97
2024-05-09T04:21:27.892Z,99861.94
2024-05-09T04:23:57.751Z,99870.16
2024-05-09T04:26:27.607Z,99865.31
2024-05-09T04:28:54.863Z,99865.41
2024-05-09T04:31:24.650Z,99852.69
2024-05-09T04:33:51.877Z,99836.44
2024-05-09T04:36:21.853Z,99860.91
2024-05-09T04:38:48.943Z,99855.22
2024-05-09T04:41:21.386Z,99854.28
2024-05-09T04:43:51.046Z,99826.44
2024-05-09T04:46:20.859Z,99847.41
2024-05-09T04:48:48.968Z,99846.09
2024-05-09T04:51:18.912Z,99850.50
2024-05-09T04:53:46.282Z,99844.34
2024-05-09T04:56:16.171Z,99847.13
2024-05-09T04:58:45.984Z,99838.31
2024-05-09T05:01:16.219Z,99838.78
2024-05-09T05:03:43.602Z,99844.44
2024-05-09T05:06:13.599Z,99832.63
2024-05-09T05:08:40.806Z,99827.41
2024-05-09T05:11:10.697Z,99826.81
2024-05-09T05:13:40.972Z,99824.13
2024-05-09T05:16:14.132Z,99819.72
2024-05-09T05:18:41.437Z,99818.16
2024-05-09T05:21:11.324Z,99781.81
2024-05-09T05:23:38.698Z,99821.44
2024-05-09T05:26:08.650Z,99824.81
2024-05-09T05:28:35.828Z,99799.66
2024-05-09T05:31:05.648Z,99809.72
2024-05-09T05:33:35.565Z,99809.69
2024-05-09T05:36:05.537Z,99805.66
2024-05-09T05:38:32.814Z,99803.25
2024-05-09T05:41:02.681Z,99801.56
2024-05-09T05:43:29.831Z,99796.34
2024-05-09T05:45:59.719Z,99793.53
2024-05-09T05:48:27.101Z,99792.13
2024-05-09T05:51:02.685Z,99787.31
2024-05-09T05:53:31.512Z,99784.22
2024-05-09T05:56:01.578Z,99780.19
2024-05-09T05:58:28.791Z,99777.81
2024-05-09T06:00:58.729Z,99778.53
2024-05-09T06:03:26.009Z,99768.13
2024-05-09T06:05:55.849Z,99768.59
2024-05-09T06:08:28.006Z,99723.38
2024-05-09T06:10:59.819Z,99759.44
2024-05-09T06:13:27.044Z,99765.34
2024-05-09T06:15:56.824Z,99743.00
2024-05-09T06:18:24.425Z,99762.03
2024-05-09T06:20:55.058Z,99757.69
2024-05-09T06:23:22.384Z,99754.81
2024-05-09T06:25:55.237Z,99752.72
2024-05-09T06:28:22.389Z,99735.59
2024-05-09T06:30:52.170Z,99749.44
2024-05-09T06:33:19.612Z,99754.81
2024-05-09T06:35:49.549Z,99745.22
2024-05-09T06:38:16.811Z,99742.88
2024-05-09T06:40:46.731Z,99739.88
2024-05-09T06:43:18.948Z,99735.78
2024-05-09T06:45:49.733Z,99738.19
2024-05-09T06:48:18.816Z,99721.09
2024-05-09T06:50:49.128Z,99714.19
2024-05-09T06:53:17.483Z,99715.09
2024-05-09T06:55:47.555Z,99716.28
2024-05-09T06:58:17.437Z,99705.91
2024-05-09T07:00:47.543Z,99700.88
2024-05-09T07:03:17.924Z,99699.25
2024-05-09T07:05:49.964Z,99672.69
2024-05-09T07:08:17.613Z,99695.13
2024-05-09T07:10:47.998Z,99681.28
2024-05-09T07:13:18.120Z,99683.09
2024-05-09T07:15:47.987Z,99657.53
2024-05-09T07:18:17.843Z,99663.00
2024-05-09T07:20:50.127Z,99670.06
2024-05-09T07:23:18.430Z,99642.81
2024-05-09T07:25:48.714Z,99655.06
2024-05-09T07:28:20.695Z,99658.25
2024-05-09T07:30:50.598Z,99654.94
2024-05-09T07:33:18.385Z,99638.06
2024-05-09T07:35:48.783Z,99653.78
2024-05-09T07:38:15.997Z,99654.63
2024-05-09T07:40:46.128Z,99652.41
2024-05-09T07:43:14.619Z,99652.84
2024-05-09T07:45:53.389Z,99642.81
2024-05-09T07:52:39.256Z,99640.03
2024-05-09T07:53:47.392Z,99635.81
2024-05-09T07:56:23.057Z,99630.41
2024-05-09T07:58:52.316Z,99618.94
2024-05-09T08:01:26.492Z,99605.25
2024-05-09T08:03:56.951Z,99605.50
2024-05-09T08:06:24.774Z,99610.91
2024-05-09T08:08:54.647Z,99609.50
2024-05-09T08:11:21.796Z,99604.56
2024-05-09T08:13:51.621Z,99603.16
2024-05-09T08:16:21.699Z,99596.31
2024-05-09T08:18:51.910Z,99592.78
2024-05-09T08:21:19.607Z,99600.16
2024-05-09T08:23:49.436Z,99589.88
2024-05-09T08:26:16.546Z,99597.63
2024-05-09T08:28:46.349Z,99582.56
2024-05-09T08:31:13.686Z,99582.88
2024-05-09T08:33:51.354Z,99580.81
2024-05-09T08:36:18.673Z,99582.00
2024-05-09T08:38:48.666Z,99576.28
2024-05-09T08:41:15.750Z,99573.00
2024-05-09T08:43:47.192Z,99564.53
2024-05-09T08:46:14.597Z,99571.41
2024-05-09T08:48:49.352Z,99554.91
2024-05-09T08:51:16.587Z,99565.38
2024-05-09T08:53:46.484Z,99541.78
2024-05-09T08:56:15.071Z,99543.78
2024-05-09T08:58:45.494Z,99524.91
2024-05-09T09:01:14.477Z,99521.63
2024-05-09T09:03:45.293Z,99545.38
2024-05-09T09:06:21.126Z,99541.47
2024-05-09T09:08:51.909Z,99518.25
2024-05-09T09:11:19.127Z,99540.69
2024-05-09T09:13:48.920Z,99519.31
2024-05-09T09:16:16.539Z,99531.44
2024-05-09T09:18:47.234Z,99511.91
2024-05-09T09:21:18.051Z,99524.19
2024-05-09T09:23:47.835Z,99522.75
2024-05-09T09:26:16.799Z,99513.66
2024-05-09T09:28:47.507Z,99485.31
2024-05-09T09:31:18.198Z,99499.22
2024-05-09T09:33:48.490Z,99489.16
2024-05-09T09:36:19.104Z,99470.91
2024-05-09T09:38:51.056Z,99472.66
2024-05-09T09:41:19.999Z,99461.00
2024-05-09T09:43:50.574Z,99466.03
2024-05-09T09:46:19.635Z,99447.59
2024-05-09T09:48:50.897Z,99447.75
2024-05-09T09:51:22.666Z,99434.22
2024-05-09T09:53:55.708Z,99451.28
2024-05-09T09:56:24.115Z,99445.34
2024-05-09T09:58:55.993Z,99434.22
2024-05-09T10:01:23.307Z,99429.03
2024-05-09T10:03:53.358Z,99426.47
2024-05-09T10:06:23.985Z,99432.50
2024-05-09T10:08:54.464Z,99429.84
2024-05-09T10:11:22.365Z,99422.25
2024-05-09T10:13:55.096Z,99427.38
2024-05-09T10:16:22.545Z,99422.16
2024-05-09T10:18:52.659Z,99415.41
2024-05-09T10:21:23.374Z,99388.09
2024-05-09T10:24:00.690Z,99397.50
2024-05-09T10:26:32.363Z,99402.41
2024-05-09T10:29:03.480Z,99393.91
2024-05-09T10:31:30.910Z,99393.06
2024-05-09T10:34:03.381Z,99383.78
2024-05-09T10:36:33.475Z,99381.25
2024-05-09T10:39:03.301Z,99374.47
2024-05-09T10:41:30.445Z,99376.19
2024-05-09T10:44:00.205Z,99371.09
2024-05-09T10:46:27.426Z,99367.53
2024-05-09T10:48:57.451Z,99362.53
2024-05-09T10:51:24.985Z,99331.72
2024-05-09T10:53:58.713Z,99351.47
2024-05-09T10:56:26.266Z,99346.41
2024-05-09T10:58:56.054Z,99352.38
2024-05-09T11:01:23.570Z,99348.97
2024-05-09T11:03:53.801Z,99340.41
2024-05-09T11:06:21.114Z,99336.97
2024-05-09T11:08:51.525Z,99337.00
2024-05-09T11:11:21.501Z,99338.72
2024-05-09T11:13:51.416Z,99311.41
2024-05-09T11:16:20.181Z,99332.66
2024-05-09T11:18:58.828Z,99334.34
2024-05-09T11:21:26.946Z,99329.25
2024-05-09T11:23:57.182Z,99329.00
2024-05-09T11:26:29.691Z,99322.97
2024-05-09T11:28:59.560Z,99321.31
2024-05-09T11:31:27.004Z,99317.03
2024-05-09T11:33:57.342Z,99311.91
2024-05-09T11:36:24.650Z,99306.09
2024-05-09T11:38:54.481Z,99308.69
2024-05-09T11:41:21.628Z,99308.72
2024-05-09T11:43:54.066Z,99289.16
2024-05-09T11:46:21.536Z,99289.97
2024-05-09T11:48:51.692Z,99289.06
2024-05-09T11:51:19.011Z,99265.22
2024-05-09T11:53:48.823Z,99272.06
2024-05-09T11:56:17.552Z,99261.84
2024-05-09T11:58:49.331Z,99263.56
2024-05-09T12:01:20.322Z,99254.25
2024-05-09T12:03:51.882Z,99250.91
2024-05-09T12:06:19.209Z,99248.38
2024-05-09T12:08:49.423Z,99241.50
2024-05-09T12:11:16.930Z,99243.00
2024-05-09T12:13:46.767Z,99233.59
2024-05-09T12:16:14.184Z,99227.50
2024-05-09T12:18:46.931Z,99236.13
2024-05-09T12:21:17.168Z,99216.69
2024-05-09T12:23:46.944Z,99220.03
2024-05-09T12:26:15.944Z,99217.50
2024-05-09T12:28:46.070Z,99210.81
2024-05-09T12:31:13.242Z,99206.53
2024-05-09T12:33:43.172Z,99209.19
2024-05-09T12:36:13.168Z,99205.78
2024-05-09T12:38:42.933Z,99190.47
2024-05-09T12:41:10.626Z,99195.56
2024-05-09T12:43:40.394Z,99193.88
2024-05-09T12:46:07.616Z,99191.31
2024-05-09T12:48:37.689Z,99194.75
2024-05-09T12:51:06.118Z,99190.44
2024-05-09T12:53:39.225Z,99169.13
2024-05-09T12:56:09.378Z,99188.78
2024-05-09T12:58:39.659Z,99183.59
2024-05-09T13:01:06.924Z,99180.19
2024-05-09T13:03:37.021Z,99180.25
2024-05-09T13:06:04.620Z,99173.47
2024-05-09T13:08:34.613Z,99175.19
2024-05-09T13:11:04.709Z,99167.53
2024-05-09T13:13:34.463Z,99177.75
2024-05-09T13:16:01.837Z,99167.50
2024-05-09T13:18:33.587Z,99166.66
2024-05-09T13:21:00.861Z,99168.34
2024-05-09T13:23:30.704Z,99161.56
2024-05-09T13:25:57.840Z,99162.41
2024-05-09T13:28:32.358Z,99152.22
2024-05-09T13:30:59.579Z,99149.66
2024-05-09T13:33:29.601Z,99147.94
2024-05-09T13:35:57.067Z,99141.97
2024-05-09T13:38:26.935Z,99141.13
2024-05-09T13:40:54.230Z,99136.03
2024-05-09T13:43:25.630Z,99136.88
2024-05-09T13:45:56.471Z,99136.03
2024-05-09T13:48:26.650Z,99130.09
2024-05-09T13:50:53.875Z,99130.94
2024-05-09T13:53:25.235Z,99118.16
2024-05-09T13:55:52.406Z,99113.06
2024-05-09T13:58:23.616Z,99111.34
2024-05-09T14:00:51.134Z,99115.59
2024-05-09T14:03:24.742Z,99086.66
2024-05-09T14:05:52.406Z,99107.94
2024-05-09T14:08:23.103Z,99118.16
2024-05-09T14:10:50.999Z,99110.50
2024-05-09T14:13:21.045Z,99107.06
2024-05-09T14:15:48.651Z,99107.94
2024-05-09T14:18:18.675Z,99112.16
2024-05-09T14:20:48.554Z,99094.22
2024-05-09T14:23:20.580Z,99092.53
2024-05-09T14:25:51.300Z,99101.91
2024-05-09T14:28:22.725Z,99099.38
2024-05-09T14:30:50.139Z,99095.91
2024-05-09T14:33:25.571Z,99050.66
2024-05-09T14:35:55.663Z,99100.13
2024-05-09T14:38:26.514Z,99084.78
2024-05-09T14:40:54.010Z,99087.38
2024-05-09T14:43:24.077Z,99091.69
2024-05-09T14:45:51.380Z,99086.53
2024-05-09T14:48:22.269Z,99089.94
2024-05-09T14:50:49.495Z,99089.00
2024-05-09T14:53:23.739Z,99086.44
2024-05-09T14:55:51.023Z,99076.22
2024-05-09T14:58:20.940Z,99077.91
2024-05-09T15:00:50.967Z,99059.13
2024-05-09T15:03:22.410Z,99070.22
2024-05-09T15:05:50.578Z,99060.88
2024-05-09T15:08:23.532Z,99060.00
2024-05-09T15:10:51.025Z,99059.13
2024-05-09T15:13:21.535Z,99064.16
2024-05-09T15:15:49.225Z,99062.38
2024-05-09T15:18:19.648Z,99056.41
2024-05-09T15:20:47.333Z,99048.59
2024-05-09T15:23:17.377Z,99029.88
2024-05-09T15:25:47.216Z,99039.31
2024-05-09T15:28:17.237Z,99034.25
2024-05-09T15:30:46.564Z,99030.03
2024-05-09T15:33:17.205Z,99018.97
2024-05-09T15:35:46.776Z,99026.53
2024-05-09T15:38:18.565Z,99028.13
2024-05-09T15:40:48.855Z,99005.97
2024-05-09T15:43:18.795Z,99018.75
2024-05-09T15:45:46.041Z,99017.03
2024-05-09T15:48:16.385Z,99015.31
2024-05-09T15:50:43.730Z,99004.22
2024-05-09T15:53:14.426Z,99019.59
2024-05-09T15:55:42.402Z,99017.81
2024-05-09T15:58:15.942Z,99018.66
2024-05-09T16:00:45.052Z,99014.41
2024-05-09T16:03:16.331Z,99004.19
2024-05-09T16:05:44.665Z,99003.31
2024-05-09T16:08:15.337Z,99004.94
2024-05-09T16:10:46.029Z,99000.56
2024-05-09T16:13:19.848Z,98998.00
2024-05-09T16:15:47.497Z,98997.97
2024-05-09T16:18:17.595Z,98987.75
2024-05-09T16:20:47.221Z,98965.63
2024-05-09T16:23:19.152Z,98983.59
2024-05-09T16:25:48.039Z,98987.75
2024-05-09T16:28:22.902Z,98984.16
2024-05-09T16:30:51.140Z,98978.25
2024-05-09T16:33:23.966Z,98982.41
2024-05-09T16:35:51.464Z,98968.97
2024-05-09T16:38:21.341Z,98966.56
2024-05-09T16:40:48.609Z,98961.53
2024-05-09T16:43:22.379Z,98960.50
2024-05-09T16:45:51.314Z,98946.03
2024-05-09T16:48:21.292Z,98956.28
2024-05-09T16:50:49.063Z,98952.13
2024-05-09T16:53:19.205Z,98953.44
2024-05-09T16:55:46.353Z,98920.47
2024-05-09T16:58:16.619Z,98943.44
2024-05-09T17:00:46.881Z,98942.56
2024-05-09T17:03:17.043Z,98938.44
2024-05-09T17:05:46.690Z,98937.63
2024-05-09T17:08:18.643Z,98923.19
2024-05-09T17:10:46.246Z,98930.81
2024-05-09T17:13:16.750Z,98928.34
2024-05-09T17:15:50.492Z,98932.56
2024-05-09T17:18:21.109Z,98923.28
2024-05-09T17:20:52.571Z,98921.69
2024-05-09T17:23:19.848Z,98915.78
2024-05-09T17:25:49.825Z,98920.81
2024-05-09T17:28:17.172Z,98896.97
2024-05-09T17:30:49.859Z,98922.41
2024-05-09T17:33:17.235Z,98914.00
2024-05-09T17:35:50.825Z,98905.53
2024-05-09T17:38:18.608Z,98911.47
2024-05-09T17:40:48.618Z,98899.56
2024-05-09T17:43:15.927Z,98903.84
2024-05-09T17:45:45.993Z,98897.03
2024-05-09T17:50:46.959Z,98899.56
2024-05-09T17:53:14.145Z,98895.31
2024-05-09T17:55:43.990Z,98891.09
2024-05-09T17:58:12.999Z,98855.31
2024-05-09T18:00:43.081Z,98887.69
2024-05-09T18:03:12.421Z,98847.75
2024-05-09T18:05:46.152Z,98873.31
2024-05-09T18:08:13.851Z,98879.19
2024-05-09T18:10:44.440Z,98867.38
2024-05-09T18:13:13.257Z,98883.41
2024-05-09T18:15:45.442Z,98876.66
2024-05-09T18:18:13.498Z,98873.25
2024-05-09T18:20:46.638Z,98868.16
2024-05-09T18:23:16.441Z,98857.16
2024-05-09T18:25:48.260Z,98869.91
2024-05-09T18:28:16.810Z,98868.16
2024-05-09T18:30:47.313Z,98876.50
2024-05-09T18:33:14.940Z,98873.16
2024-05-09T18:35:48.908Z,98875.75
2024-05-09T18:38:16.245Z,98860.44
2024-05-09T18:40:48.865Z,98874.06
2024-05-09T18:43:17.158Z,98880.00
2024-05-09T18:45:47.688Z,98868.13
2024-05-09T18:48:15.500Z,98861.34
2024-05-09T18:50:48.248Z,98840.94
2024-05-09T18:53:16.256Z,98871.47
2024-05-09T18:55:46.056Z,98872.22
2024-05-09T18:58:13.425Z,98854.22
2024-05-09T19:00:45.930Z,98857.81
2024-05-09T19:03:16.230Z,98868.00
2024-05-09T19:05:49.049Z,98870.56
2024-05-09T19:08:16.337Z,98868.03
2024-05-09T19:10:46.688Z,98843.44
2024-05-09T19:13:14.646Z,98833.31
2024-05-09T19:15:45.155Z,98846.06
2024-05-09T19:18:14.110Z,98860.50
2024-05-09T19:20:44.704Z,98840.88
2024-05-09T19:23:14.732Z,98844.34
2024-05-09T19:25:44.552Z,98861.25
2024-05-09T19:28:11.720Z,98861.25
2024-05-09T19:30:42.856Z,98855.91
2024-05-09T19:33:12.859Z,98839.75
2024-05-09T19:35:43.892Z,98857.53
2024-05-09T19:38:11.838Z,98868.53
2024-05-09T19:40:44.424Z,98860.13
2024-05-09T19:43:11.731Z,98859.19
2024-05-09T19:45:41.611Z,98857.38
2024-05-09T19:48:09.129Z,98849.84
2024-05-09T19:50:43.203Z,98856.59
2024-05-09T19:53:12.357Z,98862.41
2024-05-09T19:55:45.310Z,98853.97
2024-05-09T19:58:13.113Z,98849.84
2024-05-09T20:00:44.360Z,98843.91
2024-05-09T20:03:13.447Z,98844.78
2024-05-09T20:05:45.535Z,98825.03
2024-05-09T20:08:13.462Z,98861.59
2024-05-09T20:10:45.974Z,98843.09
2024-05-09T20:13:14.084Z,98842.97
2024-05-09T20:15:44.045Z,98852.91
2024-05-09T20:18:11.431Z,98828.38
2024-05-09T20:20:43.861Z,98841.81
2024-05-09T20:23:12.656Z,98835.81
2024-05-09T20:25:45.506Z,98829.88
2024-05-09T20:28:12.778Z,98846.69
2024-05-09T20:30:42.860Z,98857.63
2024-05-09T20:33:10.621Z,98838.28
2024-05-09T20:35:40.694Z,98844.16
2024-05-09T20:38:08.052Z,98843.94
2024-05-09T20:40:39.417Z,98848.28
2024-05-09T20:43:10.474Z,98848.28
2024-05-09T20:45:40.978Z,98854.91
2024-05-09T20:48:09.569Z,98864.09
2024-05-09T20:50:42.040Z,98869.81
2024-05-09T20:53:11.378Z,98861.22
2024-05-09T20:55:41.704Z,98857.72
2024-05-09T20:58:11.988Z,98859.41
2024-05-09T21:00:44.774Z,98870.31
2024-05-09T21:03:14.874Z,98872.03
2024-05-09T21:05:46.970Z,98872.84
2024-05-09T21:08:14.649Z,98877.06
2024-05-09T21:10:44.676Z,98881.09
2024-05-09T21:13:14.649Z,98875.06
2024-05-09T21:15:44.614Z,98876.31
2024-05-09T21:18:11.973Z,98878.78
2024-05-09T21:20:41.797Z,98888.69
2024-05-09T21:23:08.982Z,98879.28
2024-05-09T21:25:38.875Z,98890.13
2024-05-09T21:28:06.392Z,98872.25
2024-05-09T21:30:42.503Z,98873.59
2024-05-09T21:33:12.654Z,98892.88
2024-05-09T21:35:44.716Z,98894.25
2024-05-09T21:38:14.000Z,98894.19
2024-05-09T21:40:44.760Z,98902.72
2024-05-09T21:43:12.427Z,98901.00
2024-05-09T21:45:45.230Z,98909.47
2024-05-09T21:48:13.360Z,98915.50
2024-05-09T21:50:43.343Z,98913.00
2024-05-09T21:53:11.546Z,98924.13
2024-05-09T21:55:41.886Z,98932.56
2024-05-09T21:58:09.048Z,98924.13
2024-05-09T22:00:40.754Z,98934.13
2024-05-09T22:03:12.161Z,98936.66
2024-05-09T22:05:44.575Z,98939.06
2024-05-09T22:08:12.735Z,98936.66
2024-05-09T22:10:42.701Z,98945.00
2024-05-09T22:13:10.076Z,98938.03
2024-05-09T22:15:41.173Z,98941.56
2024-05-09T22:18:12.062Z,98953.47
2024-05-09T22:20:45.803Z,98960.38
2024-05-09T22:23:14.897Z,98956.09
2024-05-09T22:25:45.220Z,98955.47
2024-05-09T22:28:15.593Z,98972.75
2024-05-09T22:30:47.298Z,98971.03
2024-05-09T22:33:17.808Z,98974.47
2024-05-09T22:35:48.181Z,98976.25
2024-05-09T22:38:15.464Z,98986.47
2024-05-09T22:40:48.727Z,98988.44
2024-05-09T22:43:19.546Z,98992.53
2024-05-09T22:45:50.240Z,98987.56
2024-05-09T22:48:20.696Z,98995.19
2024-05-09T22:50:50.571Z,98996.84
2024-05-09T22:53:19.000Z,98995.06
2024-05-09T22:55:48.851Z,99002.72
2024-05-09T22:58:16.207Z,99003.47
2024-05-09T23:00:46.185Z,99004.06
2024-05-09T23:03:16.002Z,99025.19
2024-05-09T23:05:48.498Z,99016.59
2024-05-09T23:08:16.204Z,98994.38
2024-05-09T23:10:46.294Z,99029.91
2024-05-09T23:13:13.539Z,99029.16
2024-05-09T23:15:43.588Z,98993.63
2024-05-09T23:18:11.440Z,99009.84
2024-05-09T23:20:41.277Z,99025.06
2024-05-09T23:23:12.015Z,99006.34
2024-05-09T23:25:43.798Z,99032.03
2024-05-09T23:28:11.095Z,99024.38
2024-05-09T23:30:41.998Z,99015.84
2024-05-09T23:33:10.924Z,99025.03
2024-05-09T23:35:40.976Z,99045.38
2024-05-09T23:38:10.788Z,99051.19
2024-05-09T23:40:42.042Z,99048.78
2024-05-09T23:43:11.032Z,99045.13
2024-05-09T23:45:41.794Z,99042.03
2024-05-09T23:48:09.913Z,99052.13
2024-05-09T23:50:40.726Z,99059.69
2024-05-09T23:53:11.492Z,99062.88
2024-05-09T23:55:41.887Z,99060.31
2024-05-09T23:58:09.354Z,99061.16
